sensor_id;sensor_type;location;lat;lon;timestamp;P1;durP1;ratioP1;P2;durP2;ratioP2
51298;SDS011;37382;45.192;9.790;2022-08-01T08:53:34;21.17;;;8.75;;
51298;SDS011;37382;45.192;9.790;2022-08-01T08:56:03;16.58;;;8.75;;
51298;SDS011;37382;45.192;9.790;2022-08-01T08:58:33;22.52;;;9.75;;
51298;SDS011;37382;45.192;9.790;2022-08-01T09:03:34;15.40;;;7.50;;
51298;SDS011;37382;45.192;9.790;2022-08-01T09:06:02;18.90;;;6.38;;
51298;SDS011;37382;45.192;9.790;2022-08-01T09:08:30;13.80;;;6.45;;
51298;SDS011;37382;45.192;9.790;2022-08-01T09:10:57;21.77;;;6.32;;
51298;SDS011;37382;45.192;9.790;2022-08-01T09:13:25;16.77;;;5.82;;
51298;SDS011;37382;45.192;9.790;2022-08-01T09:15:53;21.75;;;6.22;;
51298;SDS011;37382;45.192;9.790;2022-08-01T11:24:55;8.48;;;2.50;;
51298;SDS011;37382;45.192;9.790;2022-08-01T11:27:25;5.03;;;2.20;;
51298;SDS011;37382;45.192;9.790;2022-08-01T11:32:46;5.25;;;2.00;;
51298;SDS011;37382;45.192;9.790;2022-08-01T11:35:37;4.43;;;2.08;;
51298;SDS011;37382;45.192;9.790;2022-08-01T11:38:25;4.78;;;1.73;;
51298;SDS011;37382;45.192;9.790;2022-08-01T11:44:00;6.03;;;2.40;;
51298;SDS011;37382;45.192;9.790;2022-08-01T11:51:59;5.53;;;2.67;;
51298;SDS011;37382;45.192;9.790;2022-08-01T11:54:33;8.80;;;2.80;;
51298;SDS011;37382;45.192;9.790;2022-08-01T11:57:03;7.90;;;2.60;;
51298;SDS011;37382;45.192;9.790;2022-08-01T11:59:37;10.52;;;2.33;;
51298;SDS011;37382;45.192;9.790;2022-08-01T12:02:38;3.40;;;2.33;;
51298;SDS011;37382;45.192;9.790;2022-08-01T12:05:10;12.70;;;2.50;;
51298;SDS011;37382;45.192;9.790;2022-08-01T12:07:41;3.97;;;2.67;;
51298;SDS011;37382;45.192;9.790;2022-08-01T12:10:11;6.85;;;2.08;;
51298;SDS011;37382;45.192;9.790;2022-08-01T12:12:45;7.95;;;2.38;;
51298;SDS011;37382;45.192;9.790;2022-08-01T12:15:17;6.25;;;2.80;;
51298;SDS011;37382;45.192;9.790;2022-08-01T12:17:47;8.02;;;2.08;;
51298;SDS011;37382;45.192;9.790;2022-08-01T12:20:29;11.23;;;2.50;;
51298;SDS011;37382;45.192;9.790;2022-08-01T12:23:05;4.30;;;1.92;;
51298;SDS011;37382;45.192;9.790;2022-08-01T12:25:35;6.68;;;2.35;;
51298;SDS011;37382;45.192;9.790;2022-08-01T12:28:04;9.70;;;2.22;;
51298;SDS011;37382;45.192;9.790;2022-08-01T12:30:33;4.20;;;2.00;;
51298;SDS011;37382;45.192;9.790;2022-08-01T12:33:05;8.85;;;2.45;;
51298;SDS011;37382;45.192;9.790;2022-08-01T12:35:34;8.10;;;1.93;;
51298;SDS011;37382;45.192;9.790;2022-08-01T12:38:04;13.77;;;2.45;;
51298;SDS011;37382;45.192;9.790;2022-08-01T12:40:46;6.40;;;2.20;;
51298;SDS011;37382;45.192;9.790;2022-08-01T12:43:21;6.15;;;2.10;;
51298;SDS011;37382;45.192;9.790;2022-08-01T13:27:04;2.67;;;1.10;;
51298;SDS011;37382;45.192;9.790;2022-08-01T15:45:16;3.45;;;0.90;;
51298;SDS011;37382;45.192;9.790;2022-08-01T15:48:06;1.48;;;0.80;;
51298;SDS011;37382;45.192;9.790;2022-08-01T15:50:33;3.17;;;0.93;;
51298;SDS011;37382;45.192;9.790;2022-08-01T15:53:01;1.10;;;0.82;;
51298;SDS011;37382;45.192;9.790;2022-08-01T15:55:28;5.43;;;1.02;;
51298;SDS011;37382;45.192;9.790;2022-08-01T15:57:56;3.67;;;1.05;;
51298;SDS011;37382;45.192;9.790;2022-08-01T16:00:23;6.22;;;1.00;;
51298;SDS011;37382;45.192;9.790;2022-08-01T16:02:59;3.03;;;0.70;;
51298;SDS011;37382;45.192;9.790;2022-08-01T16:05:26;3.67;;;0.95;;
51298;SDS011;37382;45.192;9.790;2022-08-01T16:07:53;2.33;;;1.00;;
51298;SDS011;37382;45.192;9.790;2022-08-01T16:10:28;1.75;;;0.85;;
51298;SDS011;37382;45.192;9.790;2022-08-01T16:12:56;8.77;;;1.25;;
51298;SDS011;37382;45.192;9.790;2022-08-01T16:15:26;3.20;;;1.02;;
51298;SDS011;37382;45.192;9.790;2022-08-01T16:18:03;5.00;;;1.20;;
51298;SDS011;37382;45.192;9.790;2022-08-01T16:20:32;6.78;;;1.00;;
51298;SDS011;37382;45.192;9.790;2022-08-01T16:22:59;1.58;;;0.90;;
51298;SDS011;37382;45.192;9.790;2022-08-01T16:25:27;3.95;;;1.00;;
51298;SDS011;37382;45.192;9.790;2022-08-01T16:27:55;2.70;;;1.00;;
51298;SDS011;37382;45.192;9.790;2022-08-01T16:30:22;1.98;;;1.00;;
51298;SDS011;37382;45.192;9.790;2022-08-01T16:32:50;2.55;;;0.90;;
51298;SDS011;37382;45.192;9.790;2022-08-01T16:35:26;7.35;;;1.35;;
